« Back
NWS Peachtree City, Ga » Text Product » CSG Terminal Aerodrome Forecast


Printer-friendly Version
Current Version              Previous Versions:   1  2  3  4  5  6  7  8  9  

Terminal Aerodrome Forecast

023
FTUS42 KFFC 242300
TAFCSG
TAF
KCSG 242320Z 2500/2524 VRB03KT P6SM SKC
     FM250200 00000KT P6SM SKC
     FM251500 33005KT P6SM SKC=



USA.gov is the U.S. government's official web portal to all federal, state and local government web resources and services.